createdAt,value
2018-01-30T00:00:41.680Z,5.20
2018-01-30T00:03:09.115Z,4.30
2018-01-30T00:05:36.545Z,3.90
2018-01-30T00:08:04.043Z,3.40
2018-01-30T00:10:31.610Z,4.43
2018-01-30T00:12:59.038Z,3.90
2018-01-30T00:15:26.485Z,3.70
2018-01-30T00:17:53.978Z,4.10
2018-01-30T00:20:21.421Z,4.07
2018-01-30T00:22:48.886Z,4.15
2018-01-30T00:25:16.350Z,3.92
2018-01-30T00:27:43.785Z,3.50
2018-01-30T00:30:11.292Z,3.90
2018-01-30T00:32:38.781Z,3.70
2018-01-30T00:35:06.273Z,3.97
2018-01-30T00:37:33.746Z,4.03
2018-01-30T00:40:01.153Z,4.43
2018-01-30T00:42:28.601Z,4.75
2018-01-30T00:44:56.089Z,4.03
2018-01-30T00:47:23.522Z,4.30
2018-01-30T00:49:51.014Z,4.35
2018-01-30T00:52:18.450Z,4.28
2018-01-30T00:54:45.989Z,4.10
2018-01-30T00:57:13.486Z,4.45
2018-01-30T00:59:40.915Z,4.10
2018-01-30T01:02:08.351Z,4.07
2018-01-30T01:04:35.841Z,4.20
2018-01-30T01:07:03.276Z,5.10
2018-01-30T01:09:30.701Z,4.62
2018-01-30T01:11:59.016Z,4.30
2018-01-30T01:14:26.494Z,3.92
2018-01-30T01:16:53.954Z,4.72
2018-01-30T01:19:21.388Z,3.87
2018-01-30T01:21:48.854Z,3.90
2018-01-30T01:24:16.282Z,3.77
2018-01-30T01:26:43.706Z,3.85
2018-01-30T01:29:11.907Z,4.40
2018-01-30T01:31:39.397Z,4.53
2018-01-30T01:34:06.861Z,4.50
2018-01-30T01:36:34.289Z,4.20
2018-01-30T01:39:01.738Z,4.60
2018-01-30T01:41:29.173Z,4.07
2018-01-30T01:43:57.366Z,4.05
2018-01-30T01:46:24.849Z,3.95
2018-01-30T01:48:52.282Z,4.00
2018-01-30T01:51:19.770Z,3.70
2018-01-30T01:53:47.225Z,3.75
2018-01-30T01:56:14.650Z,3.22
2018-01-30T01:58:42.082Z,3.60
2018-01-30T02:01:10.293Z,3.50
2018-01-30T02:03:37.774Z,3.10
2018-01-30T02:06:05.233Z,4.05
2018-01-30T02:08:32.665Z,3.58
2018-01-30T02:11:00.089Z,3.17
2018-01-30T02:13:28.281Z,3.80
2018-01-30T02:15:55.761Z,4.18
2018-01-30T02:18:23.197Z,3.20
2018-01-30T02:20:50.677Z,3.33
2018-01-30T02:23:18.119Z,4.15
2018-01-30T02:25:45.597Z,3.95
2018-01-30T02:28:13.055Z,3.70
2018-01-30T02:30:40.514Z,3.78
2018-01-30T02:33:07.945Z,3.40
2018-01-30T02:35:35.413Z,4.23
2018-01-30T02:38:02.847Z,3.97
2018-01-30T02:40:30.338Z,3.10
2018-01-30T02:42:57.786Z,3.70
2018-01-30T02:45:25.221Z,3.60
2018-01-30T02:47:52.693Z,3.90
2018-01-30T02:50:20.150Z,3.60
2018-01-30T02:52:47.706Z,3.50
2018-01-30T02:55:15.175Z,3.40
2018-01-30T02:57:42.602Z,3.60
2018-01-30T03:00:10.030Z,3.75
2018-01-30T03:02:38.234Z,4.10
2018-01-30T03:05:05.657Z,3.60
2018-01-30T03:07:33.844Z,4.00
2018-01-30T03:10:01.345Z,3.80
2018-01-30T03:12:28.803Z,4.40
2018-01-30T03:14:56.237Z,3.55
2018-01-30T03:17:23.664Z,3.30
2018-01-30T03:19:51.961Z,4.10
2018-01-30T03:22:19.490Z,3.90
2018-01-30T03:24:47.689Z,3.90
2018-01-30T03:27:15.177Z,3.50
2018-01-30T03:29:42.602Z,4.30
2018-01-30T03:32:10.101Z,4.53
2018-01-30T03:34:37.528Z,3.97
2018-01-30T03:37:04.954Z,3.90
2018-01-30T03:39:32.376Z,3.90
2018-01-30T03:41:59.808Z,3.67
2018-01-30T03:44:27.259Z,3.45
2018-01-30T03:46:54.702Z,4.00
2018-01-30T03:49:22.129Z,3.90
2018-01-30T03:51:50.353Z,4.10
2018-01-30T03:54:17.809Z,3.72
2018-01-30T03:56:45.250Z,3.08
2018-01-30T03:59:12.722Z,4.00
2018-01-30T04:01:40.174Z,3.20
2018-01-30T04:04:07.726Z,4.00
2018-01-30T04:06:35.157Z,2.83
2018-01-30T04:09:02.578Z,2.75
2018-01-30T04:11:30.097Z,3.28
2018-01-30T04:13:57.522Z,3.20
2018-01-30T04:16:24.953Z,3.12
2018-01-30T04:18:53.198Z,3.17
2018-01-30T04:21:20.646Z,3.30
2018-01-30T04:23:48.069Z,3.70
2018-01-30T04:26:15.493Z,3.67
2018-01-30T04:28:43.017Z,3.50
2018-01-30T04:31:10.473Z,3.53
2018-01-30T04:33:37.929Z,3.78
2018-01-30T04:36:05.353Z,3.97
2018-01-30T04:38:32.853Z,3.80
2018-01-30T04:41:00.270Z,3.85
2018-01-30T04:43:27.698Z,4.05
2018-01-30T04:45:56.030Z,4.62
2018-01-30T04:48:23.587Z,3.90
2018-01-30T04:50:51.011Z,4.10
2018-01-30T04:53:18.502Z,4.30
2018-01-30T04:55:46.064Z,3.60
2018-01-30T04:58:13.498Z,4.65
2018-01-30T05:00:40.989Z,4.00
2018-01-30T05:03:08.430Z,4.07
2018-01-30T05:05:35.857Z,3.70
2018-01-30T05:08:03.298Z,4.87
2018-01-30T05:10:31.637Z,4.00
2018-01-30T05:12:59.154Z,4.57
2018-01-30T05:15:26.635Z,4.37
2018-01-30T05:17:54.190Z,4.13
2018-01-30T05:20:21.614Z,3.97
2018-01-30T05:22:49.049Z,4.30
2018-01-30T05:25:17.284Z,4.63
2018-01-30T05:27:44.750Z,4.20
2018-01-30T05:30:12.182Z,3.85
2018-01-30T05:32:39.645Z,4.50
2018-01-30T05:35:07.078Z,4.65
2018-01-30T05:37:34.634Z,4.10
2018-01-30T05:40:02.150Z,4.35
2018-01-30T05:42:29.648Z,4.60
2018-01-30T05:44:57.133Z,3.95
2018-01-30T05:47:24.589Z,4.97
2018-01-30T05:49:52.027Z,3.92
2018-01-30T05:52:19.501Z,4.80
2018-01-30T05:54:46.980Z,4.47
2018-01-30T05:57:14.429Z,4.70
2018-01-30T05:59:41.861Z,4.55
2018-01-30T06:02:09.302Z,3.95
2018-01-30T06:04:36.746Z,4.32
2018-01-30T06:07:04.177Z,3.85
2018-01-30T06:09:32.483Z,3.92
2018-01-30T06:11:59.969Z,4.30
2018-01-30T06:14:27.436Z,4.03
2018-01-30T06:19:28.898Z,3.75
2018-01-30T06:21:56.350Z,4.70
2018-01-30T06:24:23.905Z,3.95
2018-01-30T06:26:51.470Z,4.22
2018-01-30T06:29:18.902Z,4.10
2018-01-30T06:31:46.429Z,4.62
2018-01-30T06:34:13.837Z,4.20
2018-01-30T06:36:41.398Z,3.83
2018-01-30T06:39:08.807Z,4.70
2018-01-30T06:41:37.110Z,5.20
2018-01-30T06:44:04.524Z,4.22
2018-01-30T06:46:32.730Z,4.62
2018-01-30T06:49:00.199Z,3.80
2018-01-30T06:51:27.625Z,3.90
2018-01-30T06:53:55.830Z,3.60
2018-01-30T06:56:23.272Z,3.70
2018-01-30T06:58:50.694Z,4.10
2018-01-30T07:01:18.309Z,4.03
2018-01-30T07:03:45.765Z,3.87
2018-01-30T07:06:13.315Z,3.70
2018-01-30T07:08:40.815Z,4.10
2018-01-30T07:11:08.341Z,3.40
2018-01-30T07:13:35.769Z,4.10
2018-01-30T07:16:03.219Z,3.78
2018-01-30T07:18:30.766Z,3.50
2018-01-30T07:20:58.993Z,3.78
2018-01-30T07:23:26.427Z,3.53
2018-01-30T07:25:53.920Z,3.35
2018-01-30T07:28:21.328Z,4.90
2018-01-30T07:30:48.759Z,3.60
2018-01-30T07:33:16.994Z,4.53
2018-01-30T07:35:44.429Z,3.62
2018-01-30T07:38:11.861Z,4.50
2018-01-30T07:40:39.301Z,4.00
2018-01-30T07:43:07.535Z,4.03
2018-01-30T07:45:34.957Z,4.60
2018-01-30T07:48:02.531Z,4.10
2018-01-30T07:50:29.950Z,4.30
2018-01-30T07:52:58.197Z,4.15
2018-01-30T07:55:25.621Z,4.50
2018-01-30T07:57:53.053Z,4.40
2018-01-30T08:00:20.553Z,4.40
2018-01-30T08:02:49.345Z,4.53
2018-01-30T08:05:16.769Z,5.03
2018-01-30T08:07:44.205Z,4.12
2018-01-30T08:10:12.494Z,5.43
2018-01-30T08:12:39.926Z,5.20
2018-01-30T08:15:08.138Z,5.25
2018-01-30T08:17:35.645Z,4.25
2018-01-30T08:20:03.154Z,4.87
2018-01-30T08:22:30.733Z,5.85
2018-01-30T08:24:58.181Z,4.30
2018-01-30T08:27:25.623Z,5.40
2018-01-30T08:29:53.109Z,5.97
2018-01-30T08:32:20.689Z,5.70
2018-01-30T08:34:49.081Z,5.10
2018-01-30T08:37:17.303Z,4.75
2018-01-30T08:39:44.756Z,5.95
2018-01-30T08:42:12.177Z,5.80
2018-01-30T08:44:40.377Z,5.67
2018-01-30T08:47:07.801Z,5.65
2018-01-30T08:49:36.073Z,5.50
2018-01-30T08:52:04.517Z,6.65
2018-01-30T08:54:32.066Z,5.53
2018-01-30T08:56:59.525Z,5.60
2018-01-30T08:59:26.961Z,5.50
2018-01-30T09:01:54.916Z,6.60
2018-01-30T09:04:22.346Z,6.32
2018-01-30T09:06:50.574Z,7.00
2018-01-30T09:09:18.169Z,5.57
2018-01-30T09:11:45.591Z,6.00
2018-01-30T09:14:13.021Z,6.60
2018-01-30T09:16:40.605Z,6.65
2018-01-30T09:19:08.050Z,6.22
2018-01-30T09:21:35.522Z,6.70
2018-01-30T09:24:02.978Z,6.20
2018-01-30T09:26:30.406Z,6.55
2018-01-30T09:28:57.894Z,6.70
2018-01-30T09:31:25.324Z,6.30
2018-01-30T09:33:52.753Z,6.60
2018-01-30T09:36:20.957Z,6.87
2018-01-30T09:38:48.553Z,6.07
2018-01-30T09:41:15.992Z,6.60
2018-01-30T09:43:43.450Z,7.00
2018-01-30T09:46:10.986Z,5.80
2018-01-30T09:48:38.466Z,5.90
2018-01-30T09:51:05.978Z,5.90
2018-01-30T09:53:35.101Z,6.87
2018-01-30T09:56:02.576Z,6.70
2018-01-30T09:58:30.001Z,6.20
2018-01-30T10:00:57.490Z,6.00
2018-01-30T10:03:24.928Z,6.60
2018-01-30T10:05:52.402Z,6.87
2018-01-30T10:08:19.868Z,5.70
2018-01-30T10:10:47.331Z,6.00
2018-01-30T10:13:14.770Z,6.05
2018-01-30T10:15:42.217Z,6.40
2018-01-30T10:18:09.645Z,5.55
2018-01-30T10:20:39.530Z,6.00
2018-01-30T10:23:07.158Z,5.18
2018-01-30T10:25:34.605Z,5.93
2018-01-30T10:28:02.061Z,5.47
2018-01-30T10:30:29.497Z,4.90
2018-01-30T10:32:57.038Z,5.75
2018-01-30T10:35:24.484Z,5.97
2018-01-30T10:37:52.841Z,5.87
2018-01-30T10:40:20.286Z,6.10
2018-01-30T10:42:47.694Z,6.40
2018-01-30T10:45:15.297Z,5.22
2018-01-30T10:47:42.745Z,5.80
2018-01-30T10:50:10.170Z,6.10
2018-01-30T10:52:37.784Z,4.82
2018-01-30T10:55:05.206Z,5.90
2018-01-30T10:57:32.672Z,6.35
2018-01-30T11:00:00.095Z,6.30
2018-01-30T11:02:28.344Z,6.05
2018-01-30T11:04:55.790Z,6.18
2018-01-30T11:07:23.353Z,6.45
2018-01-30T11:09:51.966Z,6.37
2018-01-30T11:12:20.182Z,6.65
2018-01-30T11:14:47.613Z,6.00
2018-01-30T11:17:15.046Z,6.60
2018-01-30T11:19:43.285Z,6.35
2018-01-30T11:22:10.730Z,6.62
2018-01-30T11:24:38.154Z,6.07
2018-01-30T11:27:05.642Z,7.07
2018-01-30T11:29:33.105Z,6.10
2018-01-30T11:32:00.638Z,6.32
2018-01-30T11:34:28.121Z,5.20
2018-01-30T11:36:55.603Z,6.55
2018-01-30T11:39:23.045Z,6.03
2018-01-30T11:41:50.481Z,5.60
2018-01-30T11:44:17.906Z,5.78
2018-01-30T11:46:45.357Z,5.20
2018-01-30T11:49:12.940Z,5.35
2018-01-30T11:51:40.409Z,5.97
2018-01-30T11:54:07.834Z,5.50
2018-01-30T11:56:35.258Z,4.95
2018-01-30T11:59:02.772Z,5.60
2018-01-30T12:01:30.182Z,5.65
2018-01-30T12:03:57.710Z,4.93
2018-01-30T12:06:25.178Z,5.18
2018-01-30T12:08:52.801Z,5.80
2018-01-30T12:11:20.228Z,5.32
2018-01-30T12:13:48.542Z,5.12
2018-01-30T12:16:16.125Z,4.50
2018-01-30T12:18:43.568Z,5.15
2018-01-30T12:21:11.017Z,4.50
2018-01-30T12:23:38.511Z,4.87
2018-01-30T12:26:06.233Z,5.33
2018-01-30T12:28:33.738Z,4.40
2018-01-30T12:31:01.348Z,5.57
2018-01-30T12:33:28.838Z,4.70
2018-01-30T12:35:56.279Z,4.10
2018-01-30T12:38:23.737Z,3.80
2018-01-30T12:40:51.217Z,3.75
2018-01-30T12:43:19.418Z,4.25
2018-01-30T12:45:47.662Z,4.47
2018-01-30T12:48:15.090Z,3.97
2018-01-30T12:50:42.530Z,3.20
2018-01-30T12:53:10.008Z,4.10
2018-01-30T12:55:37.440Z,3.95
2018-01-30T12:58:05.022Z,3.47
2018-01-30T13:00:32.446Z,3.40
2018-01-30T13:02:59.941Z,4.10
2018-01-30T13:05:27.438Z,4.50
2018-01-30T13:07:54.861Z,3.80
2018-01-30T13:10:22.399Z,3.80
2018-01-30T13:12:49.805Z,3.50
2018-01-30T13:15:17.345Z,3.90
2018-01-30T13:17:44.797Z,3.42
2018-01-30T13:20:12.261Z,3.20
2018-01-30T13:22:39.702Z,3.80
2018-01-30T13:25:07.147Z,3.50
2018-01-30T13:27:34.654Z,3.67
2018-01-30T13:30:02.455Z,3.80
2018-01-30T13:32:29.978Z,4.57
2018-01-30T13:34:57.411Z,3.50
2018-01-30T13:37:24.970Z,3.45
2018-01-30T13:39:52.511Z,3.00
2018-01-30T13:42:20.007Z,3.50
2018-01-30T13:44:48.210Z,3.42
2018-01-30T13:47:15.703Z,4.28
2018-01-30T13:49:43.142Z,3.80
2018-01-30T13:52:10.567Z,4.20
2018-01-30T13:54:39.918Z,4.22
2018-01-30T13:57:07.346Z,4.20
2018-01-30T13:59:34.781Z,4.25
2018-01-30T14:02:02.253Z,3.90
2018-01-30T14:04:29.686Z,3.75
2018-01-30T14:06:57.929Z,4.50
2018-01-30T14:09:25.454Z,4.20
2018-01-30T14:11:52.886Z,3.80
2018-01-30T14:14:20.351Z,4.00
2018-01-30T14:16:47.845Z,4.60
2018-01-30T14:19:15.278Z,3.35
2018-01-30T14:21:42.733Z,4.15
2018-01-30T14:24:10.211Z,3.90
2018-01-30T14:26:37.675Z,3.65
2018-01-30T14:29:05.101Z,3.70
2018-01-30T14:31:32.599Z,3.47
2018-01-30T14:34:00.165Z,3.53
2018-01-30T14:36:27.587Z,4.00
2018-01-30T14:38:55.019Z,3.60
2018-01-30T14:41:23.330Z,3.80
2018-01-30T14:43:50.769Z,3.55
2018-01-30T14:46:18.265Z,3.70
2018-01-30T14:48:45.735Z,3.37
2018-01-30T14:51:13.283Z,3.17
2018-01-30T14:53:40.715Z,3.40
2018-01-30T14:56:08.147Z,3.57
2018-01-30T14:58:35.606Z,3.22
2018-01-30T15:01:03.021Z,3.70
2018-01-30T15:03:30.446Z,4.00
2018-01-30T15:05:57.974Z,3.62
2018-01-30T15:08:25.439Z,4.15
2018-01-30T15:10:52.918Z,3.65
2018-01-30T15:13:20.429Z,4.10
2018-01-30T15:15:47.949Z,3.70
2018-01-30T15:18:15.407Z,4.10
2018-01-30T15:20:42.880Z,3.45
2018-01-30T15:23:10.317Z,4.10
2018-01-30T15:25:37.757Z,5.13
2018-01-30T15:28:05.236Z,4.72
2018-01-30T15:30:32.649Z,4.30
2018-01-30T15:33:00.217Z,4.80
2018-01-30T15:35:27.686Z,5.10
2018-01-30T15:37:55.132Z,3.70
2018-01-30T15:40:22.630Z,3.40
2018-01-30T15:42:50.049Z,4.72
2018-01-30T15:45:17.527Z,4.32
2018-01-30T15:47:44.957Z,3.53
2018-01-30T15:50:12.429Z,3.78
2018-01-30T15:52:39.990Z,4.03
2018-01-30T15:55:07.529Z,4.30
2018-01-30T15:57:35.008Z,3.60
2018-01-30T16:00:03.078Z,4.22
2018-01-30T16:02:30.524Z,3.72
2018-01-30T16:04:57.953Z,3.95
2018-01-30T16:07:25.493Z,4.20
2018-01-30T16:09:53.697Z,4.28
2018-01-30T16:12:21.171Z,4.10
2018-01-30T16:14:49.347Z,3.85
2018-01-30T16:17:16.809Z,3.60
2018-01-30T16:19:44.285Z,4.20
2018-01-30T16:22:11.719Z,3.35
2018-01-30T16:24:39.363Z,3.60
2018-01-30T16:27:06.803Z,3.62
2018-01-30T16:29:34.261Z,3.50
2018-01-30T16:32:01.792Z,3.40
2018-01-30T16:34:29.253Z,3.80
2018-01-30T16:36:56.678Z,4.32
2018-01-30T16:39:24.322Z,4.57
2018-01-30T16:41:51.894Z,3.60
2018-01-30T16:44:19.461Z,4.35
2018-01-30T16:46:46.994Z,4.65
2018-01-30T16:49:14.518Z,3.78
2018-01-30T16:51:41.964Z,3.87
2018-01-30T16:54:10.163Z,3.60
2018-01-30T16:56:37.637Z,4.70
2018-01-30T16:59:05.077Z,3.83
2018-01-30T17:01:32.517Z,3.83
2018-01-30T17:04:00.060Z,3.67
2018-01-30T17:06:28.259Z,4.55
2018-01-30T17:08:56.033Z,4.60
2018-01-30T17:11:23.454Z,5.68
2018-01-30T17:13:52.473Z,5.20
2018-01-30T17:16:19.914Z,5.03
2018-01-30T17:18:47.405Z,4.63
2018-01-30T17:21:14.859Z,4.70
2018-01-30T17:23:42.345Z,5.47
2018-01-30T17:26:09.862Z,4.95
2018-01-30T17:28:37.266Z,4.62
2018-01-30T17:31:04.698Z,4.40
2018-01-30T17:33:32.163Z,4.80
2018-01-30T17:35:59.594Z,4.30
2018-01-30T17:38:27.059Z,5.10
2018-01-30T17:40:54.504Z,5.35
2018-01-30T17:43:21.904Z,4.40
2018-01-30T17:45:49.340Z,4.82
2018-01-30T17:48:16.822Z,5.55
2018-01-30T17:50:44.373Z,4.90
2018-01-30T17:53:11.818Z,4.75
2018-01-30T17:55:39.291Z,4.57
2018-01-30T17:58:06.798Z,4.47
2018-01-30T18:00:34.225Z,4.43
2018-01-30T18:03:02.446Z,5.35
2018-01-30T18:05:29.865Z,5.27
2018-01-30T18:07:57.311Z,5.05
2018-01-30T18:10:25.506Z,4.97
2018-01-30T18:12:52.968Z,4.95
2018-01-30T18:15:20.419Z,5.22
2018-01-30T18:17:47.940Z,4.50
2018-01-30T18:20:15.586Z,5.30
2018-01-30T18:22:43.144Z,4.50
2018-01-30T18:25:10.777Z,4.97
2018-01-30T18:27:38.234Z,4.12
2018-01-30T18:30:05.689Z,4.50
2018-01-30T18:32:33.173Z,5.03
2018-01-30T18:35:00.598Z,5.10
2018-01-30T18:37:28.058Z,5.78
2018-01-30T18:39:55.520Z,4.85
2018-01-30T18:42:22.949Z,5.40
2018-01-30T18:44:50.516Z,5.80
2018-01-30T18:47:17.929Z,5.73
2018-01-30T18:49:45.561Z,7.03
2018-01-30T18:52:13.114Z,6.93
2018-01-30T18:54:40.563Z,6.27
2018-01-30T18:57:08.043Z,6.20
2018-01-30T18:59:35.545Z,5.80
2018-01-30T19:02:03.042Z,6.85
2018-01-30T19:04:30.495Z,7.20
2018-01-30T19:06:58.034Z,5.80
2018-01-30T19:09:25.460Z,7.70
2018-01-30T19:11:53.697Z,7.28
2018-01-30T19:14:21.121Z,8.23
2018-01-30T19:16:48.603Z,8.35
2018-01-30T19:19:16.053Z,8.15
2018-01-30T19:21:43.509Z,8.98
2018-01-30T19:24:10.965Z,9.07
2018-01-30T19:26:38.398Z,8.13
2018-01-30T19:29:05.868Z,8.38
2018-01-30T19:31:33.338Z,9.05
2018-01-30T19:34:00.881Z,9.87
2018-01-30T19:36:28.430Z,10.00
2018-01-30T19:38:55.841Z,10.05
2018-01-30T19:41:23.366Z,10.47
2018-01-30T19:43:50.790Z,10.27
2018-01-30T19:46:18.226Z,11.15
2018-01-30T19:48:45.726Z,12.52
2018-01-30T19:51:13.178Z,11.65
2018-01-30T19:53:40.767Z,12.30
2018-01-30T19:56:08.198Z,13.77
2018-01-30T19:58:35.770Z,13.60
2018-01-30T20:01:03.316Z,13.40
2018-01-30T20:03:30.888Z,14.98
2018-01-30T20:05:58.342Z,15.50
2018-01-30T20:08:25.793Z,14.40
2018-01-30T20:10:53.256Z,15.32
2018-01-30T20:13:20.702Z,16.33
2018-01-30T20:15:48.137Z,16.30
2018-01-30T20:18:16.114Z,16.92
2018-01-30T20:20:43.581Z,16.90
2018-01-30T20:23:11.030Z,16.40
2018-01-30T20:25:38.462Z,17.30
2018-01-30T20:28:05.932Z,16.33
2018-01-30T20:30:34.150Z,17.55
2018-01-30T20:33:01.593Z,18.85
2018-01-30T20:35:29.257Z,18.02
2018-01-30T20:37:56.701Z,18.05
2018-01-30T20:40:24.174Z,17.58
2018-01-30T20:42:51.805Z,16.83
2018-01-30T20:45:19.249Z,16.42
2018-01-30T20:47:46.921Z,17.48
2018-01-30T20:50:14.342Z,18.25
2018-01-30T20:52:42.549Z,17.60
2018-01-30T20:55:10.166Z,18.15
2018-01-30T20:57:37.614Z,20.77
2018-01-30T21:00:05.250Z,19.73
2018-01-30T21:02:32.715Z,20.25
2018-01-30T21:05:00.250Z,20.12
2018-01-30T21:07:27.714Z,21.98
2018-01-30T21:09:55.192Z,22.98
2018-01-30T21:12:22.641Z,22.80
2018-01-30T21:14:50.074Z,23.33
2018-01-30T21:17:17.549Z,22.83
2018-01-30T21:19:44.982Z,21.63
2018-01-30T21:22:12.427Z,22.87
2018-01-30T21:24:39.874Z,21.58
2018-01-30T21:27:08.077Z,22.62
2018-01-30T21:29:35.549Z,23.00
2018-01-30T21:32:03.102Z,21.23
2018-01-30T21:34:30.572Z,21.55
2018-01-30T21:36:58.171Z,22.67
2018-01-30T21:39:26.505Z,22.70
2018-01-30T21:41:54.033Z,21.95
2018-01-30T21:44:21.657Z,22.40
2018-01-30T21:46:49.284Z,23.12
2018-01-30T21:49:16.718Z,22.33
2018-01-30T21:51:44.142Z,24.65
2018-01-30T21:54:18.371Z,24.48
2018-01-30T21:56:39.932Z,25.55
2018-01-30T21:59:07.489Z,28.60
2018-01-30T22:01:34.933Z,27.05
2018-01-30T22:04:02.390Z,26.05
2018-01-30T22:06:29.961Z,25.73
2018-01-30T22:08:58.294Z,26.87
2018-01-30T22:11:25.862Z,27.03
2018-01-30T22:13:53.434Z,28.40
2018-01-30T22:16:20.913Z,30.45
2018-01-30T22:18:48.553Z,30.23
2018-01-30T22:21:15.986Z,31.05
2018-01-30T22:23:43.485Z,30.20
2018-01-30T22:26:10.926Z,30.58
2018-01-30T22:28:38.349Z,31.12
2018-01-30T22:31:05.793Z,31.73
2018-01-30T22:33:33.985Z,31.07
2018-01-30T22:36:01.478Z,30.90
2018-01-30T22:38:28.919Z,32.35
2018-01-30T22:40:56.385Z,31.75
2018-01-30T22:43:23.817Z,31.00
2018-01-30T22:45:51.249Z,34.55
